This is the latest recevied weather packets stored in our database for station/object Fichtelbe. If no packets are shown the sender has not sent any weather packets the latest 1 day(s).
| Time | Temp. | Humidity | Pressure | Rain* | Wind** | Luminosity | Snow |
|---|---|---|---|---|---|---|---|
| 1778008616 | 10° C | 93% | - | - | 6.26 m/s, 70° | - | - |
| 1778004999 | 10° C | 93% | - | - | 4.47 m/s, 60° | - | - |
| 1778001399 | 10° C | 99% | - | - | 6.26 m/s, 30° | - | - |
| 1777997859 | 10° C | 99% | - | - | 5.81 m/s, 20° | - | - |
| 1777994198 | 11.11° C | 93% | - | - | 4.47 m/s, 30° | - | - |
| 1777990600 | 12.22° C | 87% | - | - | 3.58 m/s, 10° | - | - |
| 1777987000 | 12.22° C | 87% | - | - | 2.68 m/s, 20° | - | - |
| 1777983399 | 13.89° C | 71% | - | - | 4.47 m/s, 360° | - | - |
| 1777979798 | 12.22° C | 81% | - | - | 5.36 m/s, 360° | - | - |
| 1777976199 | 16.11° C | 67% | - | - | 3.13 m/s, 90° | - | - |
| 1777972599 | 15° C | 67% | - | - | 3.13 m/s, 100° | - | - |
| 1777968999 | 12.22° C | 81% | - | - | 3.58 m/s, 80° | - | - |
| 1777965398 | 10° C | 87% | - | - | 4.02 m/s, 30° | - | - |
| 1777961799 | 8.89° C | 87% | - | - | 4.47 m/s, 20° | - | - |
| 1777958199 | 8.89° C | 87% | - | - | 3.58 m/s, 40° | - | - |
| 1777954599 | 10° C | 76% | - | - | 4.47 m/s, 60° | - | - |
| 1777950999 | 10° C | 76% | - | - | 4.02 m/s, 50° | - | - |
| 1777947399 | 10° C | 76% | - | - | 4.47 m/s, 50° | - | - |
| 1777943800 | 10° C | 76% | - | - | 3.13 m/s, 50° | - | - |
| 1777940199 | 11.11° C | 76% | - | - | 4.02 m/s, 90° | - | - |
| 1777936599 | 12.22° C | 71% | - | - | 5.81 m/s, 120° | - | - |
| 1777932999 | 12.22° C | 71% | - | - | 6.71 m/s, 120° | - | - |
| 1777929398 | 12.22° C | 71% | - | - | 5.81 m/s, 110° | - | - |
| 1777925797 | 12.22° C | 71% | - | - | 5.36 m/s, 110° | - | - |
* Rain since midnight (hover to see other rain measurements)
** Current wind speed in m/s (hover to see current wind gust speed)